Time;durP1;ratioP1;P1;durP2;ratioP2;P2;SDS_P1;SDS_P2;PMS_P1;PMS_P2;Temp;Humidity;BMP_temperature;BMP_pressure;BME280_temperature;BME280_humidity;BME280_pressure;Samples;Min_cycle;Max_cycle;Signal;HPM_P1;HPM_P2
2023/08/05 00:01:43;;;;;;;2.80;1.40;;;19.40;63.50;21.20;101553.00;;;;5029031;28;20200;-76
2023/08/05 00:04:09;;;;;;;1.98;1.45;;;19.50;63.60;21.20;101547.00;;;;5029247;28;20208;-76
2023/08/05 00:06:38;;;;;;;2.00;1.55;;;19.50;63.60;21.20;101544.00;;;;5028948;28;20211;-75
2023/08/05 00:09:05;;;;;;;1.48;1.05;;;19.50;63.70;21.20;101540.00;;;;5028655;28;20622;-76
2023/08/05 00:11:31;;;;;;;1.95;1.52;;;19.50;63.70;21.20;101545.00;;;;5028773;28;20212;-75
2023/08/05 00:13:58;;;;;;;1.50;1.35;;;19.40;63.70;21.20;101539.00;;;;5029118;28;20684;-75
2023/08/05 00:16:25;;;;;;;1.63;1.30;;;19.50;63.80;21.20;101536.00;;;;5048898;28;20208;-75
2023/08/05 00:18:52;;;;;;;1.65;1.55;;;19.40;63.80;21.20;101535.00;;;;5048747;28;20207;-76
2023/08/05 00:21:20;;;;;;;1.98;1.75;;;19.40;63.90;21.20;101538.00;;;;5047453;28;20215;-76
2023/08/05 00:23:48;;;;;;;2.58;1.33;;;19.40;63.90;21.20;101531.00;;;;5048275;28;20210;-76
2023/08/05 00:26:16;;;;;;;3.33;1.45;;;19.40;63.90;21.20;101534.00;;;;5048984;28;20214;-76
2023/08/05 00:28:43;;;;;;;2.00;1.65;;;19.40;63.90;21.20;101534.00;;;;5048567;28;20239;-76
2023/08/05 00:31:10;;;;;;;3.47;1.75;;;19.50;63.90;21.20;101530.00;;;;5048478;28;20206;-76
2023/08/05 00:33:37;;;;;;;2.53;1.60;;;19.50;64.10;21.20;101522.00;;;;5048477;28;20215;-75
2023/08/05 00:36:04;;;;;;;2.78;1.70;;;19.50;64.10;21.20;101526.00;;;;5047049;28;20204;-75
2023/08/05 00:38:31;;;;;;;1.80;1.42;;;19.50;64.10;21.20;101513.00;;;;5029660;28;20227;-75
2023/08/05 00:40:59;;;;;;;4.05;1.60;;;19.50;64.20;21.20;101518.00;;;;5028668;28;20671;-76
2023/08/05 00:43:26;;;;;;;2.28;1.63;;;19.50;64.30;21.20;101524.00;;;;5028470;28;20223;-76
2023/08/05 00:45:53;;;;;;;3.92;1.67;;;19.40;64.20;21.20;101513.00;;;;5035997;28;20196;-75
2023/08/05 00:48:22;;;;;;;3.30;1.67;;;19.50;64.40;21.20;101514.00;;;;5047998;28;20207;-76
2023/08/05 00:50:50;;;;;;;1.67;1.25;;;19.50;64.40;21.20;101506.00;;;;5047542;28;20702;-76
2023/08/05 00:53:17;;;;;;;1.58;1.48;;;19.50;64.40;21.20;101503.00;;;;5047801;28;20576;-75
2023/08/05 00:55:46;;;;;;;1.40;1.30;;;19.50;64.40;21.30;101498.00;;;;5028760;28;20627;-76
2023/08/05 00:58:14;;;;;;;2.70;1.90;;;19.50;64.40;21.30;101496.00;;;;5028459;28;20189;-76
2023/08/05 01:00:41;;;;;;;2.20;1.40;;;19.50;64.40;21.30;101483.00;;;;5028101;28;20200;-76
2023/08/05 01:03:08;;;;;;;2.13;1.60;;;19.60;64.50;21.30;101476.00;;;;5028299;28;20188;-76
2023/08/05 01:05:38;;;;;;;2.40;1.60;;;19.60;64.50;21.30;101471.00;;;;5028482;28;20207;-76
2023/08/05 01:08:07;;;;;;;2.45;1.50;;;19.60;64.50;21.30;101479.00;;;;5027678;28;20200;-76
2023/08/05 01:10:34;;;;;;;3.42;1.55;;;19.60;64.60;21.30;101474.00;;;;5028708;28;20208;-76
2023/08/05 01:13:01;;;;;;;2.80;1.90;;;19.60;64.50;21.30;101477.00;;;;5027592;28;20207;-76
2023/08/05 01:15:30;;;;;;;2.78;1.95;;;19.60;64.60;21.30;101471.00;;;;5028597;28;20228;-76
2023/08/05 01:17:58;;;;;;;2.13;1.92;;;19.60;64.60;21.30;101477.00;;;;5040283;28;20668;-76
2023/08/05 01:20:34;;;;;;;3.85;1.73;;;19.70;64.70;21.30;101475.00;;;;5047784;28;20586;-76
2023/08/05 01:23:13;;;;;;;2.05;1.77;;;19.70;64.70;21.30;101474.00;;;;5047411;28;20203;-76
2023/08/05 01:25:43;;;;;;;12.85;1.60;;;19.70;64.70;21.40;101475.00;;;;5048239;28;20251;-76
2023/08/05 01:28:10;;;;;;;2.45;1.98;;;19.70;64.60;21.40;101482.00;;;;5047225;28;20211;-75
2023/08/05 01:30:38;;;;;;;1.52;1.42;;;19.70;64.50;21.40;101477.00;;;;5047685;28;20575;-76
2023/08/05 01:33:08;;;;;;;3.13;1.63;;;19.70;64.50;21.30;101488.00;;;;5047702;28;20214;-76
2023/08/05 01:35:35;;;;;;;3.55;1.73;;;19.70;64.50;21.30;101484.00;;;;5048120;28;20234;-76
2023/08/05 01:38:01;;;;;;;1.77;1.67;;;19.70;64.50;21.30;101486.00;;;;5047272;28;20231;-76
2023/08/05 01:40:29;;;;;;;2.08;1.83;;;19.70;64.30;21.30;101488.00;;;;5047844;28;20203;-76
2023/08/05 01:42:58;;;;;;;2.58;1.63;;;19.60;64.30;21.30;101484.00;;;;5047554;28;20200;-76
2023/08/05 01:45:25;;;;;;;3.50;1.60;;;19.60;64.40;21.30;101483.00;;;;5046930;28;20207;-76
2023/08/05 01:47:52;;;;;;;2.60;1.75;;;19.60;64.40;21.30;101478.00;;;;5047924;28;20203;-76
2023/08/05 01:50:19;;;;;;;2.20;1.77;;;19.60;64.50;21.20;101468.00;;;;5048073;28;20582;-76
2023/08/05 01:52:46;;;;;;;2.83;1.63;;;19.60;64.50;21.20;101476.00;;;;5047596;28;20234;-76
2023/08/05 01:55:13;;;;;;;2.35;1.60;;;19.60;64.60;21.20;101471.00;;;;5047498;28;20223;-76
2023/08/05 01:57:40;;;;;;;1.90;1.55;;;19.60;64.60;21.20;101480.00;;;;5047965;28;20571;-76
2023/08/05 02:00:10;;;;;;;3.15;1.90;;;19.50;64.60;21.20;101474.00;;;;5047360;28;20204;-75
2023/08/05 02:02:37;;;;;;;2.70;2.00;;;19.50;64.60;21.20;101475.00;;;;5046925;28;20208;-75
2023/08/05 02:05:05;;;;;;;1.60;1.50;;;19.50;64.60;21.20;101476.00;;;;5047136;28;20697;-75
2023/08/05 02:07:31;;;;;;;1.88;1.55;;;19.50;64.60;21.20;101479.00;;;;5047820;28;20199;-76
2023/08/05 02:09:58;;;;;;;4.20;1.35;;;19.40;64.60;21.20;101469.00;;;;5047392;28;20203;-76
2023/08/05 02:12:25;;;;;;;1.88;1.38;;;19.50;64.70;21.20;101475.00;;;;5047119;28;20206;-75
2023/08/05 02:14:52;;;;;;;2.15;1.95;;;19.50;64.70;21.20;101466.00;;;;5047113;28;20234;-76
2023/08/05 02:17:21;;;;;;;2.92;1.95;;;19.50;64.70;21.20;101462.00;;;;5047193;28;20238;-76
2023/08/05 02:19:48;;;;;;;3.25;1.35;;;19.50;64.70;21.20;101462.00;;;;5033638;28;20581;-76
2023/08/05 02:22:15;;;;;;;3.10;1.58;;;19.50;64.80;21.20;101456.00;;;;5027751;28;20204;-76
2023/08/05 02:24:42;;;;;;;8.10;1.75;;;19.50;64.80;21.20;101459.00;;;;5046511;28;20605;-76
2023/08/05 02:27:09;;;;;;;2.22;1.40;;;19.50;65.00;21.20;101445.00;;;;5050936;28;20562;-76
2023/08/05 02:29:36;;;;;;;3.25;2.03;;;19.40;64.90;21.20;101450.00;;;;5051253;28;20203;-76
2023/08/05 02:32:03;;;;;;;2.42;1.65;;;19.40;64.90;21.20;101447.00;;;;5050917;28;20597;-76
2023/08/05 02:34:31;;;;;;;1.80;1.50;;;19.40;64.90;21.10;101441.00;;;;5050612;28;20204;-76
2023/08/05 02:36:58;;;;;;;1.50;1.40;;;19.40;64.90;21.10;101450.00;;;;5049915;28;21030;-75
2023/08/05 02:39:25;;;;;;;2.70;1.70;;;19.40;64.90;21.10;101442.00;;;;5050767;28;20310;-76
2023/08/05 02:41:52;;;;;;;1.60;1.40;;;19.40;65.00;21.10;101443.00;;;;5050585;28;20204;-76
2023/08/05 02:44:19;;;;;;;1.73;1.50;;;19.40;65.00;21.10;101449.00;;;;5050832;28;20218;-76
2023/08/05 02:46:46;;;;;;;1.98;1.70;;;19.40;64.90;21.10;101445.00;;;;5049743;28;20199;-75
2023/08/05 02:49:13;;;;;;;2.00;1.80;;;19.40;65.00;21.10;101455.00;;;;5050539;28;20203;-77
2023/08/05 02:51:41;;;;;;;2.40;2.05;;;19.40;65.00;21.10;101455.00;;;;5051013;28;20227;-77
2023/08/05 02:54:08;;;;;;;1.63;1.50;;;19.40;65.00;21.10;101446.00;;;;5034358;28;20215;-77
2023/08/05 02:56:35;;;;;;;2.50;1.58;;;19.40;65.00;21.10;101443.00;;;;5030519;28;20220;-77
2023/08/05 02:59:02;;;;;;;2.08;1.77;;;19.40;65.00;21.10;101438.00;;;;5029577;28;20227;-77
2023/08/05 03:01:29;;;;;;;4.90;1.95;;;19.40;65.20;21.10;101432.00;;;;5030617;28;20198;-77
2023/08/05 03:03:56;;;;;;;2.22;1.60;;;19.40;65.20;21.10;101435.00;;;;5029965;28;20192;-77
2023/08/05 03:06:23;;;;;;;2.13;1.65;;;19.40;65.20;21.10;101429.00;;;;5030059;28;20193;-77
2023/08/05 03:08:51;;;;;;;2.45;1.92;;;19.40;65.20;21.10;101432.00;;;;5029951;28;20204;-77
2023/08/05 03:11:18;;;;;;;3.03;1.50;;;19.40;65.20;21.20;101419.00;;;;5030488;28;20684;-77
2023/08/05 03:13:45;;;;;;;2.63;1.52;;;19.40;65.90;21.10;101414.00;;;;5030059;28;20204;-77
2023/08/05 03:16:14;;;;;;;2.72;1.85;;;19.40;65.20;21.10;101410.00;;;;5029924;28;20239;-77
2023/08/05 03:18:41;;;;;;;4.72;1.95;;;19.40;65.20;21.10;101400.00;;;;5049330;28;20199;-77
2023/08/05 03:21:08;;;;;;;2.28;1.77;;;19.40;65.20;21.20;101402.00;;;;5049093;28;20621;-77
2023/08/05 03:23:35;;;;;;;2.08;1.77;;;19.40;65.20;21.20;101405.00;;;;5049754;28;20215;-77
2023/08/05 03:26:03;;;;;;;3.35;1.60;;;19.40;65.20;21.10;101391.00;;;;5049680;28;20203;-77
2023/08/05 03:28:30;;;;;;;3.05;1.70;;;19.40;65.30;21.10;101383.00;;;;5048688;28;20218;-77
2023/08/05 03:30:57;;;;;;;2.45;2.00;;;19.40;65.20;21.10;101379.00;;;;5048771;28;20195;-77
2023/08/05 03:33:24;;;;;;;2.45;2.05;;;19.40;65.20;21.10;101380.00;;;;5050022;28;20203;-77
2023/08/05 03:35:51;;;;;;;2.95;2.65;;;19.40;65.20;21.10;101379.00;;;;5048700;28;20223;-77
2023/08/05 03:38:19;;;;;;;6.22;2.67;;;19.40;65.20;21.10;101379.00;;;;5048967;28;20215;-77
2023/08/05 03:40:45;;;;;;;2.53;1.80;;;19.40;65.20;21.10;101380.00;;;;5049269;28;20203;-77
2023/08/05 03:43:14;;;;;;;2.92;2.28;;;19.40;65.20;21.10;101372.00;;;;5048836;28;20210;-77
2023/08/05 03:45:41;;;;;;;5.07;2.35;;;19.40;65.20;21.10;101369.00;;;;5029561;28;20691;-77
2023/08/05 03:48:07;;;;;;;3.63;2.42;;;19.40;65.20;21.10;101364.00;;;;5034779;28;20200;-77
2023/08/05 03:50:34;;;;;;;3.17;2.22;;;19.40;65.20;21.10;101372.00;;;;5048728;28;20204;-77
2023/08/05 03:53:02;;;;;;;2.58;2.30;;;19.40;65.20;21.10;101367.00;;;;5049247;28;20219;-77
2023/08/05 03:55:29;;;;;;;2.83;2.53;;;19.40;65.30;21.10;101364.00;;;;5049838;28;20595;-77
2023/08/05 03:57:56;;;;;;;5.45;2.60;;;19.40;65.30;21.10;101369.00;;;;5049235;28;20199;-77
2023/08/05 04:00:24;;;;;;;3.03;2.72;;;19.40;65.40;21.10;101360.00;;;;5048088;28;20214;-77
2023/08/05 04:02:51;;;;;;;3.35;3.05;;;19.40;65.40;21.10;101361.00;;;;5028746;28;20582;-77
2023/08/05 04:05:18;;;;;;;3.13;2.65;;;19.40;65.40;21.10;101360.00;;;;5029053;28;20204;-77
2023/08/05 04:07:46;;;;;;;3.47;2.70;;;19.40;65.50;21.10;101349.00;;;;5029087;28;20208;-77
2023/08/05 04:10:13;;;;;;;3.15;2.85;;;19.40;65.50;21.10;101359.00;;;;5029284;28;20652;-77
2023/08/05 04:12:40;;;;;;;3.70;3.08;;;19.40;65.60;21.10;101350.00;;;;5029287;28;20216;-77
2023/08/05 04:15:09;;;;;;;4.05;3.13;;;19.40;65.50;21.10;101350.00;;;;5028546;28;20224;-77
2023/08/05 04:17:37;;;;;;;3.72;3.08;;;19.40;65.70;21.10;101351.00;;;;5038593;28;20195;-77
2023/08/05 04:20:05;;;;;;;8.25;3.60;;;19.40;65.60;21.10;101348.00;;;;5048327;28;20578;-77
2023/08/05 04:22:34;;;;;;;3.67;3.20;;;19.40;65.60;21.10;101341.00;;;;5048951;28;20214;-77
2023/08/05 04:25:01;;;;;;;3.72;3.03;;;19.40;65.60;21.10;101334.00;;;;5048239;28;20233;-77
2023/08/05 04:27:28;;;;;;;5.30;3.28;;;19.40;65.70;21.10;101329.00;;;;5049035;28;20203;-77
2023/08/05 04:29:55;;;;;;;3.10;2.67;;;19.40;65.70;21.10;101320.00;;;;5048287;28;20211;-77
2023/08/05 04:32:22;;;;;;;4.00;3.00;;;19.40;65.70;21.10;101331.00;;;;5048339;28;20208;-77
2023/08/05 04:34:50;;;;;;;5.40;2.53;;;19.40;65.70;21.10;101332.00;;;;5047683;28;20203;-77
2023/08/05 04:37:20;;;;;;;4.20;2.95;;;19.40;65.70;21.10;101339.00;;;;5048819;28;20196;-77
2023/08/05 04:39:47;;;;;;;4.07;3.08;;;19.40;65.70;21.10;101323.00;;;;5048208;28;20226;-77
2023/08/05 04:42:15;;;;;;;3.70;3.00;;;19.40;65.80;21.10;101313.00;;;;5048133;28;20199;-77
2023/08/05 04:44:42;;;;;;;4.28;3.30;;;19.40;65.80;21.10;101311.00;;;;5049193;28;20649;-77
2023/08/05 04:47:09;;;;;;;3.63;3.17;;;19.50;65.80;21.20;101293.00;;;;5047982;28;20331;-77
2023/08/05 04:49:38;;;;;;;4.80;3.63;;;19.50;65.80;21.20;101294.00;;;;5048877;28;20278;-77
2023/08/05 04:52:08;;;;;;;4.35;3.63;;;19.50;65.80;21.20;101294.00;;;;5040194;28;20671;-77
2023/08/05 04:54:39;;;;;;;3.10;2.63;;;19.40;65.90;21.10;101296.00;;;;5028747;28;20579;-77
2023/08/05 04:57:06;;;;;;;3.42;3.08;;;19.40;65.80;21.20;101307.00;;;;5027897;28;20232;-77
2023/08/05 04:59:34;;;;;;;5.28;2.97;;;19.40;65.80;21.20;101303.00;;;;5028464;28;20203;-77
2023/08/05 05:02:01;;;;;;;4.13;3.20;;;19.50;65.80;21.20;101306.00;;;;5028138;28;20671;-77
2023/08/05 05:04:28;;;;;;;4.60;3.03;;;19.50;65.90;21.20;101307.00;;;;5028749;28;20208;-76
2023/08/05 05:06:55;;;;;;;3.45;3.03;;;19.50;65.90;21.20;101306.00;;;;5027571;28;20200;-77
2023/08/05 05:09:23;;;;;;;3.65;3.30;;;19.50;66.20;21.20;101302.00;;;;5028978;28;20691;-77
2023/08/05 05:11:53;;;;;;;3.50;3.20;;;19.50;66.00;21.20;101309.00;;;;5028223;28;20210;-77
2023/08/05 05:14:20;;;;;;;4.45;2.95;;;19.50;66.00;21.20;101306.00;;;;5028176;28;20675;-77
2023/08/05 05:16:46;;;;;;;4.95;3.08;;;19.50;65.90;21.20;101306.00;;;;5028035;28;20690;-77
2023/08/05 05:19:13;;;;;;;4.05;3.35;;;19.50;65.90;21.20;101304.00;;;;5032286;28;20192;-77
2023/08/05 05:21:40;;;;;;;4.68;3.83;;;19.50;65.90;21.20;101299.00;;;;5047373;28;20780;-77
2023/08/05 05:24:07;;;;;;;5.43;3.78;;;19.50;66.00;21.20;101297.00;;;;5047755;28;20203;-77
2023/08/05 05:26:35;;;;;;;9.05;4.07;;;19.50;65.90;21.20;101293.00;;;;5047325;28;20234;-77
2023/08/05 05:29:02;;;;;;;5.93;3.70;;;19.50;65.90;21.20;101302.00;;;;5047134;28;20930;-77
2023/08/05 05:31:29;;;;;;;3.65;3.35;;;19.50;66.00;21.20;101291.00;;;;5048289;28;20206;-77
2023/08/05 05:33:56;;;;;;;7.82;4.18;;;19.50;66.00;21.20;101291.00;;;;5047418;28;20210;-77
2023/08/05 05:36:24;;;;;;;4.45;3.63;;;19.50;66.00;21.20;101295.00;;;;5048482;28;20712;-77
2023/08/05 05:38:51;;;;;;;4.57;3.58;;;19.50;66.00;21.20;101296.00;;;;5047399;28;20298;-77
2023/08/05 05:41:17;;;;;;;7.22;4.25;;;19.50;66.10;21.20;101291.00;;;;5047408;28;20568;-78
2023/08/05 05:43:46;;;;;;;5.60;3.85;;;19.60;66.20;21.20;101287.00;;;;5047143;28;20211;-77
2023/08/05 05:46:14;;;;;;;4.43;3.72;;;19.60;66.20;21.20;101286.00;;;;5048156;28;20207;-77
2023/08/05 05:48:41;;;;;;;4.22;3.83;;;19.60;66.20;21.30;101276.00;;;;5048138;28;20203;-77
2023/08/05 05:51:08;;;;;;;5.80;4.05;;;19.60;66.20;21.30;101272.00;;;;5047059;28;20805;-77
2023/08/05 05:53:35;;;;;;;5.80;3.63;;;19.60;66.30;21.30;101263.00;;;;5047641;28;20208;-77
2023/08/05 05:56:02;;;;;;;5.00;4.50;;;19.60;66.30;21.30;101266.00;;;;5047383;28;20235;-77
2023/08/05 05:58:33;;;;;;;5.13;3.80;;;19.60;66.30;21.30;101259.00;;;;5049013;28;20199;-77
2023/08/05 06:01:02;;;;;;;5.78;3.85;;;19.60;66.40;21.30;101261.00;;;;5036060;28;20737;-77
2023/08/05 06:03:31;;;;;;;6.38;3.97;;;19.70;66.40;21.40;101265.00;;;;5031711;28;20196;-77
2023/08/05 06:06:00;;;;;;;4.90;4.40;;;19.60;66.40;21.40;101264.00;;;;5031135;28;20224;-77
2023/08/05 06:08:27;;;;;;;6.03;4.53;;;19.70;66.50;21.40;101261.00;;;;5031121;28;20200;-77
2023/08/05 06:10:54;;;;;;;7.82;4.00;;;19.70;66.50;21.40;101253.00;;;;5031202;28;20207;-77
2023/08/05 06:13:21;;;;;;;4.60;3.83;;;19.70;66.50;21.40;101249.00;;;;5031925;28;20251;-77
2023/08/05 06:15:48;;;;;;;7.03;4.75;;;19.70;66.50;21.50;101251.00;;;;5031105;28;20228;-77
2023/08/05 06:18:16;;;;;;;9.63;4.30;;;19.70;66.60;21.50;101255.00;;;;5032529;28;20253;-77
2023/08/05 06:20:43;;;;;;;6.65;4.57;;;19.80;66.70;21.50;101251.00;;;;5032859;28;20192;-77
2023/08/05 06:23:10;;;;;;;6.88;4.70;;;19.80;66.70;21.50;101254.00;;;;5051477;28;20208;-77
2023/08/05 06:25:37;;;;;;;6.53;4.78;;;19.90;66.80;21.60;101257.00;;;;5050756;28;20581;-77
2023/08/05 06:28:05;;;;;;;5.80;4.63;;;19.80;66.70;21.60;101262.00;;;;5050149;28;20554;-77
2023/08/05 06:30:32;;;;;;;6.45;4.53;;;19.90;66.80;21.60;101262.00;;;;5051380;28;20728;-77
2023/08/05 06:32:59;;;;;;;4.97;4.07;;;19.90;66.80;21.70;101264.00;;;;5050686;28;20211;-77
2023/08/05 06:35:27;;;;;;;6.45;4.57;;;19.90;66.80;21.70;101268.00;;;;5050382;28;20223;-77
2023/08/05 06:37:54;;;;;;;7.30;4.40;;;20.00;67.00;21.70;101265.00;;;;5050142;28;20203;-77
2023/08/05 06:40:21;;;;;;;6.65;5.30;;;20.00;67.00;21.80;101259.00;;;;5051081;28;20207;-77
2023/08/05 06:42:50;;;;;;;5.55;4.47;;;20.10;67.00;21.80;101253.00;;;;5050322;28;20211;-77
2023/08/05 06:45:17;;;;;;;6.00;4.68;;;20.10;67.10;21.90;101257.00;;;;5050938;28;20208;-77
2023/08/05 06:47:44;;;;;;;6.18;4.68;;;20.10;67.10;21.90;101252.00;;;;5050411;28;20210;-77
2023/08/05 06:50:12;;;;;;;6.65;4.47;;;20.20;67.10;21.90;101249.00;;;;5050306;28;20203;-77
2023/08/05 06:52:40;;;;;;;4.50;3.83;;;20.20;67.10;22.00;101241.00;;;;5030156;28;20715;-77
2023/08/05 06:55:08;;;;;;;5.22;3.88;;;20.30;67.10;22.00;101235.00;;;;5030516;28;20201;-77
2023/08/05 06:57:36;;;;;;;8.10;4.10;;;20.30;67.10;22.00;101237.00;;;;5030058;28;20576;-77
2023/08/05 07:00:05;;;;;;;4.55;4.15;;;20.40;67.10;22.10;101241.00;;;;5030484;28;20254;-77
2023/08/05 07:02:32;;;;;;;5.13;3.83;;;20.40;67.00;22.10;101235.00;;;;5031090;28;20521;-77
2023/08/05 07:04:59;;;;;;;5.10;3.65;;;20.40;67.00;22.20;101243.00;;;;5030209;28;20212;-77
2023/08/05 07:07:26;;;;;;;5.85;4.18;;;20.50;67.10;22.20;101242.00;;;;5030908;28;20215;-77
2023/08/05 07:10:00;;;;;;;4.63;3.70;;;20.50;67.20;22.30;101236.00;;;;5028555;28;20489;-77
2023/08/05 07:12:27;;;;;;;4.82;3.65;;;20.60;67.20;22.30;101236.00;;;;5030183;28;20208;-77
2023/08/05 07:14:53;;;;;;;5.72;3.67;;;20.60;67.20;22.40;101228.00;;;;5029806;28;20650;-77
2023/08/05 07:17:20;;;;;;;5.93;3.72;;;20.70;67.00;22.50;101232.00;;;;5030737;28;20224;-77
2023/08/05 07:19:48;;;;;;;5.28;3.75;;;20.80;67.10;22.60;101219.00;;;;5029835;28;20193;-77
2023/08/05 07:22:15;;;;;;;5.53;3.33;;;20.80;67.30;22.60;101217.00;;;;5043529;28;20202;-77
2023/08/05 07:24:42;;;;;;;4.97;3.28;;;20.90;67.50;22.70;101217.00;;;;5049199;28;20203;-77
2023/08/05 07:27:10;;;;;;;4.88;3.47;;;21.00;67.50;22.80;101199.00;;;;5050051;28;20204;-77
2023/08/05 07:29:38;;;;;;;6.28;3.75;;;21.10;67.50;22.90;101203.00;;;;5050241;28;20204;-77
2023/08/05 07:32:06;;;;;;;4.90;3.28;;;21.20;67.40;23.00;101207.00;;;;5049337;28;20204;-77
2023/08/05 07:34:32;;;;;;;4.43;3.60;;;21.30;67.10;23.10;101203.00;;;;5050297;28;20218;-77
2023/08/05 07:36:59;;;;;;;4.25;3.33;;;21.40;66.90;23.20;101199.00;;;;5048993;28;20254;-77
2023/08/05 07:39:33;;;;;;;4.00;2.97;;;21.50;66.70;23.20;101206.00;;;;5049793;28;20364;-77
2023/08/05 07:42:01;;;;;;;5.65;3.72;;;21.50;66.40;23.30;101196.00;;;;5048705;28;20286;-77
2023/08/05 07:44:31;;;;;;;7.38;4.85;;;21.60;66.20;23.30;101197.00;;;;5050498;28;20203;-77
2023/08/05 07:46:58;;;;;;;6.85;4.88;;;21.60;66.00;23.40;101194.00;;;;5049219;28;20211;-78
2023/08/05 07:49:26;;;;;;;5.60;4.20;;;21.70;65.80;23.40;101192.00;;;;5049681;28;20223;-78
2023/08/05 07:51:53;;;;;;;6.63;4.47;;;21.80;65.60;23.50;101191.00;;;;5049315;28;20239;-77
2023/08/05 07:54:21;;;;;;;6.97;4.05;;;21.80;65.50;23.50;101186.00;;;;5049023;28;20207;-77
2023/08/05 07:56:48;;;;;;;5.20;3.83;;;21.90;65.40;23.50;101185.00;;;;5049245;28;20285;-77
2023/08/05 07:59:17;;;;;;;5.13;4.18;;;21.90;65.90;23.50;101188.00;;;;5040532;28;20204;-77
2023/08/05 08:01:45;;;;;;;6.72;3.85;;;21.90;65.00;23.50;101180.00;;;;5029485;28;20275;-77
2023/08/05 08:04:14;;;;;;;3.63;3.33;;;21.90;64.90;23.60;101179.00;;;;5029172;28;20222;-77
2023/08/05 08:06:43;;;;;;;6.00;3.50;;;22.00;64.80;23.60;101164.00;;;;5028923;28;20266;-77
2023/08/05 08:09:10;;;;;;;8.90;3.90;;;22.00;64.80;23.60;101167.00;;;;5029097;28;20211;-77
2023/08/05 08:11:37;;;;;;;6.03;3.95;;;22.00;64.60;23.70;101165.00;;;;5029984;28;20591;-77
2023/08/05 08:14:04;;;;;;;4.13;3.05;;;22.10;64.60;23.70;101168.00;;;;5028259;28;20399;-77
2023/08/05 08:16:31;;;;;;;6.55;3.05;;;22.10;64.50;23.80;101165.00;;;;5029730;28;20278;-77
2023/08/05 08:19:02;;;;;;;5.78;2.83;;;22.20;64.50;23.80;101159.00;;;;5029059;28;20671;-77
2023/08/05 08:21:29;;;;;;;2.28;2.08;;;22.20;64.50;23.90;101151.00;;;;5035535;28;20199;-77
2023/08/05 08:23:55;;;;;;;2.47;1.95;;;22.30;64.30;24.00;101145.00;;;;5048723;28;20199;-77
2023/08/05 08:26:22;;;;;;;3.30;2.47;;;22.30;64.20;24.10;101147.00;;;;5048845;28;20212;-77
2023/08/05 08:28:49;;;;;;;2.90;2.42;;;22.40;64.20;24.10;101133.00;;;;5048297;28;20210;-77
2023/08/05 08:31:16;;;;;;;3.80;2.55;;;22.50;63.90;24.20;101136.00;;;;5048623;28;20622;-77
2023/08/05 08:33:43;;;;;;;3.25;2.65;;;22.50;63.70;24.30;101139.00;;;;5047605;28;20701;-78
2023/08/05 08:36:11;;;;;;;4.10;2.22;;;22.60;63.70;24.30;101133.00;;;;5048830;28;20203;-78
2023/08/05 08:38:38;;;;;;;2.20;2.03;;;22.70;63.60;24.50;101131.00;;;;5048941;28;20695;-76
2023/08/05 08:41:05;;;;;;;3.13;1.98;;;22.80;63.60;24.60;101133.00;;;;5047785;28;20218;-77
2023/08/05 08:43:33;;;;;;;3.03;2.40;;;22.90;63.50;24.60;101124.00;;;;5048922;28;20218;-77
2023/08/05 08:46:03;;;;;;;2.17;1.98;;;23.00;63.10;24.70;101117.00;;;;5048042;28;20559;-78
2023/08/05 08:48:30;;;;;;;4.25;2.50;;;23.10;63.10;24.80;101107.00;;;;5048769;28;20199;-78
2023/08/05 08:50:58;;;;;;;2.88;2.45;;;23.20;62.90;24.90;101107.00;;;;5046940;28;20232;-77
2023/08/05 08:53:28;;;;;;;4.68;2.67;;;23.30;62.60;24.90;101106.00;;;;5047977;28;20210;-77
2023/08/05 08:55:55;;;;;;;5.43;2.92;;;23.30;62.40;25.00;101107.00;;;;5047934;28;20666;-77
2023/08/05 08:58:22;;;;;;;3.33;2.72;;;23.40;62.30;25.00;101107.00;;;;5048503;28;20228;-77
2023/08/05 09:00:50;;;;;;;3.35;2.53;;;23.50;62.10;25.10;101102.00;;;;5047783;28;20726;-77
2023/08/05 09:03:19;;;;;;;3.60;2.58;;;23.50;62.10;25.10;101101.00;;;;5048135;28;20671;-77
2023/08/05 09:05:49;;;;;;;3.70;2.20;;;23.60;62.00;25.20;101100.00;;;;5048130;28;20286;-78
2023/08/05 09:08:16;;;;;;;4.47;3.05;;;23.60;61.70;25.20;101106.00;;;;5047602;28;20556;-78
2023/08/05 09:10:46;;;;;;;2.67;2.47;;;23.70;61.30;25.20;101099.00;;;;5048234;28;20577;-78
2023/08/05 09:13:16;;;;;;;3.08;1.88;;;23.70;60.90;25.20;101095.00;;;;5048625;28;20204;-78
2023/08/05 09:15:43;;;;;;;2.30;2.10;;;23.70;60.70;25.20;101093.00;;;;5048038;28;20857;-77
2023/08/05 09:18:10;;;;;;;2.95;2.38;;;23.70;60.60;25.20;101089.00;;;;5048087;28;20229;-77
2023/08/05 09:20:38;;;;;;;3.60;2.53;;;23.70;60.30;25.20;101080.00;;;;5047878;28;20670;-77
2023/08/05 09:23:08;;;;;;;4.75;3.30;;;23.70;60.10;25.20;101079.00;;;;5047777;28;20246;-77
2023/08/05 09:25:41;;;;;;;3.25;2.95;;;23.70;60.10;25.20;101072.00;;;;5047737;28;20211;-77
2023/08/05 09:28:10;;;;;;;5.35;2.83;;;23.70;59.90;25.20;101071.00;;;;5047310;28;20200;-78
2023/08/05 09:30:37;;;;;;;3.50;2.38;;;23.70;59.90;25.20;101069.00;;;;5047635;28;20215;-78
2023/08/05 09:33:05;;;;;;;3.25;2.95;;;23.70;60.00;25.20;101069.00;;;;5048258;28;20208;-77
2023/08/05 09:35:32;;;;;;;4.38;3.10;;;23.70;60.10;25.20;101055.00;;;;5052112;28;20745;-76
2023/08/05 09:38:00;;;;;;;3.42;2.78;;;23.70;60.00;25.20;101059.00;;;;5050935;28;20703;-77
2023/08/05 09:40:32;;;;;;;2.97;2.65;;;23.70;59.60;25.20;101046.00;;;;5051053;28;20295;-76
2023/08/05 09:43:02;;;;;;;3.20;2.90;;;23.70;59.70;25.30;101048.00;;;;5051603;28;20192;-76
2023/08/05 09:45:32;;;;;;;4.25;2.47;;;23.70;59.80;25.20;101045.00;;;;5051883;28;20316;-76
2023/08/05 09:48:03;;;;;;;3.65;2.55;;;23.70;59.90;25.30;101049.00;;;;5051133;28;20206;-76
2023/08/05 09:50:32;;;;;;;3.85;2.92;;;23.70;59.80;25.20;101031.00;;;;5052483;28;20207;-76
2023/08/05 09:53:01;;;;;;;4.43;3.47;;;23.70;59.70;25.20;101029.00;;;;5051094;28;20694;-75
2023/08/05 09:55:29;;;;;;;4.30;2.72;;;23.80;59.60;25.20;101024.00;;;;5051944;28;20292;-75
2023/08/05 09:57:56;;;;;;;3.53;2.90;;;23.70;59.60;25.20;101027.00;;;;5044812;28;20230;-76
2023/08/05 10:00:24;;;;;;;4.43;3.03;;;23.70;59.40;25.20;101021.00;;;;5031513;28;20200;-76
2023/08/05 10:02:53;;;;;;;4.00;3.45;;;23.70;59.40;25.20;101016.00;;;;5031397;28;20735;-75
2023/08/05 10:05:24;;;;;;;4.85;3.08;;;23.70;59.90;25.20;101024.00;;;;5031709;28;20192;-75
2023/08/05 10:07:54;;;;;;;2.95;2.70;;;23.70;59.10;25.20;101017.00;;;;5031034;28;20192;-76
2023/08/05 10:10:21;;;;;;;3.22;2.83;;;23.70;59.20;25.20;101018.00;;;;5031762;28;20212;-76
2023/08/05 10:12:53;;;;;;;5.90;3.42;;;23.70;59.10;25.10;101010.00;;;;5031199;28;20196;-76
2023/08/05 10:15:27;;;;;;;3.38;2.70;;;23.60;59.00;25.10;101000.00;;;;5032050;28;20212;-76
2023/08/05 10:17:55;;;;;;;3.13;2.72;;;23.60;59.10;25.20;100992.00;;;;5031229;28;20695;-76
2023/08/05 10:20:22;;;;;;;4.63;2.95;;;23.60;59.30;25.20;100985.00;;;;5031342;28;20204;-76
2023/08/05 10:23:04;;;;;;;4.20;3.03;;;23.60;59.20;25.10;100983.00;;;;5049334;28;20207;-76
2023/08/05 10:25:42;;;;;;;3.03;2.72;;;23.60;59.00;25.10;100975.00;;;;5050896;28;20202;-76
2023/08/05 10:28:10;;;;;;;3.13;2.83;;;23.70;59.00;25.20;100976.00;;;;5050818;28;20207;-76
2023/08/05 10:30:44;;;;;;;2.85;2.55;;;23.70;59.40;25.20;100972.00;;;;5050758;28;20591;-77
2023/08/05 10:33:12;;;;;;;3.22;2.60;;;23.70;59.00;25.20;100972.00;;;;5050210;28;20218;-76
2023/08/05 10:35:40;;;;;;;4.22;2.90;;;23.70;59.80;25.30;100963.00;;;;5050443;28;20200;-76
2023/08/05 10:38:15;;;;;;;3.10;2.75;;;23.70;59.30;25.20;100958.00;;;;5050804;28;20231;-76
2023/08/05 10:40:49;;;;;;;3.15;2.53;;;23.80;59.00;25.20;100960.00;;;;5050782;28;20227;-76
2023/08/05 10:43:35;;;;;;;3.78;2.88;;;23.70;58.80;25.10;100956.00;;;;5050746;28;20206;-76
2023/08/05 10:46:11;;;;;;;2.95;2.40;;;23.70;58.50;25.10;100956.00;;;;5050217;28;20661;-76
2023/08/05 10:48:41;;;;;;;5.13;2.45;;;23.70;58.60;25.10;100953.00;;;;5049592;28;20665;-75
2023/08/05 10:51:11;;;;;;;5.95;3.00;;;23.70;58.50;25.10;100947.00;;;;5050226;28;20227;-76